LGKV/KVA METAR and TAF weather

Enter ICAO airport designator
Station Type Date Time Source
LGKV METAR 2019/08/25 13:20 UTC NOAA

LGKV 251320Z 06009KT 9999 FEW020 36/11 Q1013


Station Type Date Time Source
LGKV Decoded METAR 2019/08/25 13:20 UTC NOAA

Station name not available
Aug 25, 2019 - 09:20 AM EDT / 2019.08.25 1320 UTC
Wind: from the ENE (060 degrees) at 10 MPH (9 KT):0
Visibility: greater than 7 mile(s):0
Sky conditions: mostly clear
Temperature: 96 F (36 C)
Dew Point: 51 F (11 C)
Relative Humidity: 22%
Pressure (altimeter): 29.91 in. Hg (1013 hPa)
ob: LGKV 251320Z 06009KT 9999 FEW020 36/11 Q1013
cycle: 13

Station Type Date Time Source
LGKV TAF 2019/08/25 12:16 UTC NOAA

TAF LGKV 251100Z 2512/2612 05010KT CAVOK

Example: see airport list